Iota, Louisiana
Current Conditions -  °F | °C
As of 4:35 PM on Friday 31 Oct 2014 (Local Time) from K3R7 Reporting Station
Clear Clear  
Wind Chill: 73°   Ceiling: Unl
Heat Index: 73°   Visibility: 10mi
Dew Point: 44°   Wind: 17mph
Humidity: 36%   Direction: 340°NNW
Pressure: 30.1"   Gusts: 24mph
Location:  30.33°N, 92.5°W
Report Text: K3R7 312135Z AUTO 34015G21KT 10SM CLR 23/07 A3010 RMK AO2 T02250065
Loading
Personal Weather Stations






























Interactive Weather Map New forecast layout! Learn more

10-Day Weather Forecast

Advertisements
Track Severe Weather on mobile